createdAt,value
2023-01-25T00:00:09.774Z,102195.63
2023-01-25T00:02:36.938Z,102197.34
2023-01-25T00:05:03.931Z,102187.66
2023-01-25T00:07:30.787Z,102193.81
2023-01-25T00:10:01.258Z,102193.81
2023-01-25T00:12:28.268Z,102207.00
2023-01-25T00:14:55.195Z,102203.50
2023-01-25T00:17:22.100Z,102208.81
2023-01-25T00:19:52.677Z,102209.69
2023-01-25T00:22:19.510Z,102207.97
2023-01-25T00:24:46.720Z,102203.53
2023-01-25T00:27:13.514Z,102203.53
2023-01-25T00:29:40.371Z,102210.53
2023-01-25T00:32:07.288Z,102220.94
2023-01-25T00:34:51.198Z,102225.47
2023-01-25T00:37:22.967Z,102215.91
2023-01-25T00:39:50.210Z,102220.37
2023-01-25T00:42:17.892Z,102211.59
2023-01-25T00:44:45.167Z,102223.97
2023-01-25T00:47:12.429Z,102217.78
2023-01-25T00:49:40.339Z,102216.09
2023-01-25T00:52:08.309Z,102220.53
2023-01-25T00:54:35.215Z,102230.25
2023-01-25T00:57:02.166Z,102232.84
2023-01-25T00:59:29.215Z,102233.72
2023-01-25T01:01:56.731Z,102231.03
2023-01-25T01:04:26.702Z,102230.16
2023-01-25T01:06:54.642Z,102230.22
2023-01-25T01:09:22.617Z,102236.41
2023-01-25T01:11:49.782Z,102231.00
2023-01-25T01:14:16.653Z,102232.47
2023-01-25T01:16:43.515Z,102237.72
2023-01-25T01:19:10.730Z,102235.00
2023-01-25T01:21:37.917Z,102228.81
2023-01-25T01:24:05.295Z,102232.41
2023-01-25T01:26:32.098Z,102228.97
2023-01-25T01:28:59.686Z,102224.41
2023-01-25T01:31:26.983Z,102221.00
2023-01-25T01:33:56.361Z,102216.37
2023-01-25T01:36:25.122Z,102219.84
2023-01-25T01:38:52.799Z,102219.81
2023-01-25T01:41:20.515Z,102217.16
2023-01-25T01:43:47.714Z,102221.56
2023-01-25T01:46:35.862Z,102217.91
2023-01-25T01:49:18.226Z,102219.34
2023-01-25T01:51:53.681Z,102220.19
2023-01-25T01:54:22.051Z,102220.84
2023-01-25T01:57:15.504Z,102219.22
2023-01-25T01:59:55.056Z,102220.84
2023-01-25T02:02:25.133Z,102223.66
2023-01-25T02:04:53.975Z,102230.31
2023-01-25T02:07:39.483Z,102222.44
2023-01-25T02:10:10.016Z,102220.16
2023-01-25T02:12:37.434Z,102216.63
2023-01-25T02:15:06.523Z,102223.75
2023-01-25T02:17:38.016Z,102229.16
2023-01-25T02:20:22.520Z,102231.91
2023-01-25T02:23:08.135Z,102224.91
2023-01-25T02:25:34.969Z,102225.78
2023-01-25T02:28:14.615Z,102223.19
2023-01-25T02:30:42.776Z,102225.81
2023-01-25T02:33:09.946Z,102220.41
2023-01-25T02:35:47.069Z,102230.91
2023-01-25T02:38:15.872Z,102231.91
2023-01-25T02:40:54.350Z,102226.47
2023-01-25T02:43:22.622Z,102211.53
2023-01-25T02:45:52.697Z,102214.97
2023-01-25T02:48:19.835Z,102217.50
2023-01-25T02:50:46.660Z,102213.25
2023-01-25T02:53:13.560Z,102214.94
2023-01-25T02:55:40.443Z,102207.94
2023-01-25T02:58:07.684Z,102214.13
2023-01-25T03:00:34.985Z,102210.47
2023-01-25T03:03:02.118Z,102205.31
2023-01-25T03:05:28.999Z,102207.84
2023-01-25T03:07:55.866Z,102199.75
2023-01-25T03:10:24.530Z,102198.88
2023-01-25T03:12:51.391Z,102209.56
2023-01-25T03:15:18.233Z,102215.56
2023-01-25T03:17:45.050Z,102211.25
2023-01-25T03:20:15.058Z,102209.31
2023-01-25T03:22:43.889Z,102206.94
2023-01-25T03:25:10.893Z,102198.16
2023-01-25T03:27:37.850Z,102208.75
2023-01-25T03:30:05.342Z,102205.31
2023-01-25T03:32:33.535Z,102208.88
2023-01-25T03:35:01.090Z,102195.59
2023-01-25T03:37:30.164Z,102198.22
2023-01-25T03:39:59.553Z,102208.84
2023-01-25T03:42:26.697Z,102202.66
2023-01-25T03:44:57.078Z,102202.63
2023-01-25T03:47:23.869Z,102192.87
2023-01-25T03:49:50.842Z,102187.66
2023-01-25T03:52:17.664Z,102189.09
2023-01-25T03:54:44.515Z,102191.50
2023-01-25T03:57:11.473Z,102192.34
2023-01-25T03:59:38.765Z,102185.47
2023-01-25T04:02:05.677Z,102191.72
2023-01-25T04:04:32.573Z,102185.44
2023-01-25T04:06:59.373Z,102193.41
2023-01-25T04:09:26.302Z,102182.66
2023-01-25T04:11:53.256Z,102195.81
2023-01-25T04:14:31.746Z,102195.81
2023-01-25T04:17:08.287Z,102187.16
2023-01-25T04:19:35.476Z,102187.22
2023-01-25T04:22:02.406Z,102190.72
2023-01-25T04:24:29.196Z,102168.63
2023-01-25T04:26:56.019Z,102196.84
2023-01-25T04:29:28.727Z,102186.31
2023-01-25T04:32:06.476Z,102184.59
2023-01-25T04:34:33.342Z,102192.53
2023-01-25T04:37:00.314Z,102190.78
2023-01-25T04:39:27.555Z,102190.69
2023-01-25T04:41:54.567Z,102189.78
2023-01-25T04:44:21.363Z,102192.63
2023-01-25T04:46:49.628Z,102191.47
2023-01-25T04:49:16.523Z,102184.66
2023-01-25T04:51:43.441Z,102180.56
2023-01-25T04:54:10.299Z,102171.94
2023-01-25T04:56:37.199Z,102173.81
2023-01-25T04:59:04.076Z,102176.44
2023-01-25T05:01:33.396Z,102184.97
2023-01-25T05:04:00.346Z,102182.69
2023-01-25T05:06:27.125Z,102183.56
2023-01-25T05:08:54.478Z,102179.25
2023-01-25T05:11:21.501Z,102184.59
2023-01-25T05:13:48.759Z,102182.81
2023-01-25T05:16:15.833Z,102189.91
2023-01-25T05:18:48.711Z,102197.19
2023-01-25T05:21:34.611Z,102193.66
2023-01-25T05:24:01.791Z,102195.63
2023-01-25T05:26:47.476Z,102200.94
2023-01-25T05:29:14.613Z,102199.41
2023-01-25T05:31:41.566Z,102188.91
2023-01-25T05:34:09.614Z,102188.97
2023-01-25T05:36:36.465Z,102183.72
2023-01-25T05:39:06.465Z,102188.16
2023-01-25T05:41:33.449Z,102205.53
2023-01-25T05:44:00.547Z,102206.97
2023-01-25T05:46:28.072Z,102194.66
2023-01-25T05:48:54.939Z,102194.81
2023-01-25T05:51:22.569Z,102191.34
2023-01-25T05:53:49.509Z,102198.56
2023-01-25T05:56:16.774Z,102195.09
2023-01-25T05:58:43.745Z,102198.72
2023-01-25T06:01:11.793Z,102196.16
2023-01-25T06:03:38.764Z,102185.59
2023-01-25T06:06:06.573Z,102200.66
2023-01-25T06:08:33.299Z,102202.38
2023-01-25T06:11:06.748Z,102199.75
2023-01-25T06:13:33.687Z,102207.59
2023-01-25T06:16:00.569Z,102206.78
2023-01-25T06:18:31.292Z,102210.22
2023-01-25T06:20:59.463Z,102207.62
2023-01-25T06:23:26.634Z,102215.19
2023-01-25T06:25:57.272Z,102214.53
2023-01-25T06:28:24.351Z,102216.44
2023-01-25T06:30:51.264Z,102218.22
2023-01-25T06:33:18.225Z,102221.75
2023-01-25T06:35:47.725Z,102219.94
2023-01-25T06:38:15.405Z,102224.03
2023-01-25T06:40:42.248Z,102228.69
2023-01-25T06:43:10.076Z,102228.34
2023-01-25T06:45:36.865Z,102227.47
2023-01-25T06:48:04.528Z,102224.13
2023-01-25T06:50:31.579Z,102239.16
2023-01-25T06:52:58.518Z,102235.72
2023-01-25T06:55:25.503Z,102236.69
2023-01-25T06:57:52.786Z,102237.66
2023-01-25T07:00:23.712Z,102230.50
2023-01-25T07:02:50.628Z,102230.53
2023-01-25T07:05:17.634Z,102224.38
2023-01-25T07:07:47.601Z,102234.00
2023-01-25T07:10:15.543Z,102235.69
2023-01-25T07:12:43.664Z,102240.84
2023-01-25T07:15:11.071Z,102236.25
2023-01-25T07:17:38.161Z,102234.56
2023-01-25T07:20:05.456Z,102235.44
2023-01-25T07:22:34.674Z,102235.41
2023-01-25T07:25:02.471Z,102228.44
2023-01-25T07:27:33.488Z,102229.44
2023-01-25T07:30:01.409Z,102231.38
2023-01-25T07:32:29.168Z,102229.66
2023-01-25T07:34:55.998Z,102226.87
2023-01-25T07:37:22.845Z,102240.37
2023-01-25T07:39:50.643Z,102239.38
2023-01-25T07:42:17.627Z,102244.50
2023-01-25T07:44:44.809Z,102241.78
2023-01-25T07:47:11.660Z,102239.31
2023-01-25T07:49:40.704Z,102236.69
2023-01-25T07:52:07.788Z,102227.34
2023-01-25T07:54:34.880Z,102217.13
2023-01-25T07:57:01.788Z,102223.47
2023-01-25T07:59:28.718Z,102229.69
2023-01-25T08:01:55.947Z,102211.94
2023-01-25T08:04:22.765Z,102226.50
2023-01-25T08:06:49.598Z,102215.78
2023-01-25T08:09:20.065Z,102215.34
2023-01-25T08:11:47.397Z,102214.59
2023-01-25T08:14:14.328Z,102218.34
2023-01-25T08:16:41.233Z,102219.41
2023-01-25T08:19:10.956Z,102223.66
2023-01-25T08:21:37.997Z,102212.09
2023-01-25T08:24:06.561Z,102214.72
2023-01-25T08:26:34.664Z,102217.38
2023-01-25T08:29:01.808Z,102213.16
2023-01-25T08:31:33.838Z,102219.53
2023-01-25T08:34:01.792Z,102215.81
2023-01-25T08:36:29.016Z,102221.06
2023-01-25T08:39:00.687Z,102216.91
2023-01-25T08:41:29.268Z,102215.28
2023-01-25T08:43:56.899Z,102219.63
2023-01-25T08:46:25.783Z,102211.81
2023-01-25T08:48:58.912Z,102208.38
2023-01-25T08:51:26.239Z,102210.94
2023-01-25T08:53:53.541Z,102194.22
2023-01-25T08:56:20.923Z,102207.41
2023-01-25T08:58:49.077Z,102200.47
2023-01-25T09:01:17.243Z,102204.78
2023-01-25T09:03:46.421Z,102198.81
2023-01-25T09:06:13.884Z,102203.16
2023-01-25T09:08:40.920Z,102194.41
2023-01-25T09:11:11.690Z,102200.38
2023-01-25T09:13:38.729Z,102193.59
2023-01-25T09:16:08.237Z,102200.41
2023-01-25T09:18:40.250Z,102202.09
2023-01-25T09:21:12.294Z,102202.91
2023-01-25T09:23:50.657Z,102209.69
2023-01-25T09:26:25.508Z,102205.31
2023-01-25T09:28:53.818Z,102202.00
2023-01-25T09:31:24.438Z,102208.94
2023-01-25T09:33:52.712Z,102204.78
2023-01-25T09:36:19.971Z,102201.16
2023-01-25T09:38:47.052Z,102196.91
2023-01-25T09:41:31.712Z,102193.53
2023-01-25T09:44:14.647Z,102191.84
2023-01-25T09:46:50.993Z,102187.56
2023-01-25T09:49:27.155Z,102184.06
2023-01-25T09:52:09.674Z,102183.28
2023-01-25T09:54:47.118Z,102178.09
2023-01-25T09:57:37.331Z,102178.00
2023-01-25T10:00:19.948Z,102168.34
2023-01-25T10:03:25.595Z,102168.22
2023-01-25T10:05:56.984Z,102163.13
2023-01-25T10:08:57.340Z,102159.59
2023-01-25T10:11:32.004Z,102156.16
2023-01-25T10:13:59.439Z,102156.22
2023-01-25T10:16:33.456Z,102142.22
2023-01-25T10:19:19.309Z,102149.25
2023-01-25T10:21:56.033Z,102134.34
2023-01-25T10:24:54.945Z,102139.69
2023-01-25T10:27:37.943Z,102138.00
2023-01-25T10:30:27.803Z,102135.37
2023-01-25T10:32:58.007Z,102123.03
2023-01-25T10:35:36.760Z,102128.37
2023-01-25T10:38:21.915Z,102130.16
2023-01-25T10:41:00.008Z,102124.00
2023-01-25T10:43:28.357Z,102116.94
2023-01-25T10:45:55.312Z,102119.59
2023-01-25T10:48:24.989Z,102109.91
2023-01-25T10:50:54.910Z,102107.25
2023-01-25T10:53:24.332Z,102095.78
2023-01-25T10:56:12.394Z,102094.91
2023-01-25T10:58:46.117Z,102079.91
2023-01-25T11:01:28.202Z,102076.34
2023-01-25T11:03:55.550Z,102071.03
2023-01-25T11:06:33.837Z,102059.53
2023-01-25T11:09:01.775Z,102067.44
2023-01-25T11:11:35.843Z,102049.84
2023-01-25T11:14:15.686Z,102053.31
2023-01-25T11:16:45.913Z,102056.87
2023-01-25T11:19:35.663Z,102045.34
2023-01-25T11:22:06.301Z,102041.72
2023-01-25T11:24:36.411Z,102038.16
2023-01-25T11:27:22.771Z,102038.09
2023-01-25T11:30:18.987Z,102031.84
2023-01-25T11:32:46.383Z,102019.41
2023-01-25T11:35:21.605Z,102013.31
2023-01-25T11:38:06.882Z,102016.81
2023-01-25T11:40:44.590Z,102000.84
2023-01-25T11:43:30.447Z,101992.78
2023-01-25T11:46:02.757Z,101977.09
2023-01-25T11:48:32.676Z,101973.44
2023-01-25T11:51:07.087Z,101961.94
2023-01-25T11:53:34.148Z,101947.78
2023-01-25T11:56:25.414Z,101952.19
2023-01-25T11:59:14.197Z,101946.84
2023-01-25T12:02:18.039Z,101937.97
2023-01-25T12:05:12.926Z,101927.38
2023-01-25T12:08:23.286Z,101930.94
2023-01-25T12:11:08.756Z,101925.44
2023-01-25T12:14:00.042Z,101923.78
2023-01-25T12:16:35.833Z,101932.91
2023-01-25T12:19:23.883Z,101918.63
2023-01-25T12:22:06.182Z,101916.66
2023-01-25T12:24:39.935Z,101924.00
2023-01-25T12:27:26.147Z,101924.06
2023-01-25T12:30:00.127Z,101906.25
2023-01-25T12:32:50.151Z,101903.53
2023-01-25T12:35:54.774Z,101899.00
2023-01-25T12:38:41.125Z,101894.41
2023-01-25T12:41:20.171Z,101896.06
2023-01-25T12:43:52.462Z,101888.84
2023-01-25T12:46:28.868Z,101886.09
2023-01-25T12:49:00.010Z,101880.87
2023-01-25T12:51:34.094Z,101866.63
2023-01-25T12:54:06.845Z,101877.03
2023-01-25T12:56:45.652Z,101872.88
2023-01-25T12:59:24.091Z,101870.31
2023-01-25T13:01:58.698Z,101865.94
2023-01-25T13:04:37.330Z,101871.47
2023-01-25T13:07:27.079Z,101859.78
2023-01-25T13:10:05.933Z,101850.97
2023-01-25T13:13:15.703Z,101858.84
2023-01-25T13:15:46.131Z,101848.53
2023-01-25T13:18:36.554Z,101844.91
2023-01-25T13:21:08.281Z,101846.66
2023-01-25T13:23:50.822Z,101825.31
2023-01-25T13:26:24.015Z,101830.09
2023-01-25T13:28:59.587Z,101825.66
2023-01-25T13:31:51.028Z,101832.50
2023-01-25T13:34:40.358Z,101835.22
2023-01-25T13:37:42.634Z,101839.69
2023-01-25T13:40:36.536Z,101818.25
2023-01-25T13:43:12.137Z,101819.97
2023-01-25T13:45:40.716Z,101817.28
2023-01-25T13:48:11.027Z,101821.59
2023-01-25T13:50:43.627Z,101825.91
2023-01-25T13:53:16.495Z,101813.63
2023-01-25T13:55:46.521Z,101812.84
2023-01-25T13:58:22.283Z,101815.34
2023-01-25T14:00:51.985Z,101809.19
2023-01-25T14:03:20.883Z,101816.28
2023-01-25T14:05:52.914Z,101801.19
2023-01-25T14:08:20.360Z,101806.63
2023-01-25T14:10:48.630Z,101815.66
2023-01-25T14:13:16.955Z,101808.44
2023-01-25T14:16:01.396Z,101812.75
2023-01-25T14:18:33.369Z,101813.72
2023-01-25T14:21:17.668Z,101807.47
2023-01-25T14:23:44.904Z,101801.38
2023-01-25T14:26:18.873Z,101804.03
2023-01-25T14:28:59.519Z,101805.19
2023-01-25T14:31:34.819Z,101815.63
2023-01-25T14:34:05.046Z,101802.44
2023-01-25T14:36:34.431Z,101812.06
2023-01-25T14:39:03.801Z,101798.00
2023-01-25T14:41:38.805Z,101801.44
2023-01-25T14:44:14.341Z,101806.75
2023-01-25T14:46:41.894Z,101812.03
2023-01-25T14:49:15.942Z,101809.47
2023-01-25T14:51:45.940Z,101801.50
2023-01-25T14:54:23.028Z,101803.31
2023-01-25T14:56:51.860Z,101801.56
2023-01-25T14:59:27.689Z,101799.78
2023-01-25T15:02:19.977Z,101803.34
2023-01-25T15:04:58.031Z,101792.78
2023-01-25T15:07:46.715Z,101799.91
2023-01-25T15:10:56.324Z,101794.59
2023-01-25T15:13:27.338Z,101789.37
2023-01-25T15:16:04.099Z,101796.44
2023-01-25T15:18:44.947Z,101797.38
2023-01-25T15:21:26.173Z,101799.19
2023-01-25T15:23:54.268Z,101793.88
2023-01-25T15:26:28.902Z,101793.88
2023-01-25T15:28:58.243Z,101798.31
2023-01-25T15:31:29.256Z,101797.44
2023-01-25T15:33:59.643Z,101800.09
2023-01-25T15:36:26.956Z,101797.44
2023-01-25T15:38:54.630Z,101801.88
2023-01-25T15:41:21.743Z,101801.94
2023-01-25T15:43:49.613Z,101806.34
2023-01-25T15:46:19.805Z,101798.38
2023-01-25T15:48:47.571Z,101799.34
2023-01-25T15:51:14.623Z,101795.91
2023-01-25T15:53:41.914Z,101793.28
2023-01-25T15:56:14.607Z,101795.97
2023-01-25T15:58:47.037Z,101801.25
2023-01-25T16:01:14.247Z,101791.59
2023-01-25T16:03:41.768Z,101795.91
2023-01-25T16:06:33.027Z,101802.09
2023-01-25T16:09:00.723Z,101791.50
2023-01-25T16:11:28.164Z,101791.50
2023-01-25T16:13:55.337Z,101793.28
2023-01-25T16:16:24.237Z,101793.37
2023-01-25T16:18:51.792Z,101787.19
2023-01-25T16:21:19.137Z,101785.47
2023-01-25T16:23:46.192Z,101787.22
2023-01-25T16:26:21.128Z,101789.03
2023-01-25T16:28:47.930Z,101784.59
2023-01-25T16:31:30.792Z,101786.34
2023-01-25T16:33:58.543Z,101787.25
2023-01-25T16:36:25.462Z,101785.50
2023-01-25T16:38:52.447Z,101781.06
2023-01-25T16:41:19.755Z,101782.84
2023-01-25T16:43:48.029Z,101782.81
2023-01-25T16:46:16.653Z,101786.37
2023-01-25T16:48:44.938Z,101784.62
2023-01-25T16:51:18.013Z,101781.16
2023-01-25T16:53:46.551Z,101779.41
2023-01-25T16:56:20.188Z,101780.28
2023-01-25T16:58:48.370Z,101780.25
2023-01-25T17:01:16.753Z,101778.50
2023-01-25T17:03:44.152Z,101778.50
2023-01-25T17:06:21.740Z,101781.12
2023-01-25T17:08:49.442Z,101766.13
2023-01-25T17:11:18.919Z,101765.25
2023-01-25T17:13:50.324Z,101763.47
2023-01-25T17:16:18.609Z,101767.88
2023-01-25T17:18:46.261Z,101767.00
2023-01-25T17:21:14.630Z,101768.78
2023-01-25T17:23:42.699Z,101765.22
2023-01-25T17:26:12.812Z,101759.03
2023-01-25T17:28:40.388Z,101763.44
2023-01-25T17:31:14.948Z,101761.66
2023-01-25T17:33:42.048Z,101765.19
2023-01-25T17:36:09.678Z,101759.09
2023-01-25T17:38:36.871Z,101751.16
2023-01-25T17:41:08.743Z,101748.50
2023-01-25T17:43:37.176Z,101743.19
2023-01-25T17:46:14.250Z,101743.19
2023-01-25T17:48:41.750Z,101741.47
2023-01-25T17:51:09.140Z,101733.56
2023-01-25T17:53:36.372Z,101739.69
2023-01-25T17:56:05.595Z,101735.28
2023-01-25T17:58:36.533Z,101734.50
2023-01-25T18:01:15.529Z,101733.62
2023-01-25T18:03:43.760Z,101733.59
2023-01-25T18:06:12.199Z,101738.00
2023-01-25T18:08:44.806Z,101741.50
2023-01-25T18:11:15.395Z,101731.97
2023-01-25T18:13:45.297Z,101739.03
2023-01-25T18:16:14.269Z,101727.50
2023-01-25T18:18:43.438Z,101729.25
2023-01-25T18:21:15.635Z,101719.59
2023-01-25T18:23:46.921Z,101738.06
2023-01-25T18:26:22.108Z,101719.53
2023-01-25T18:28:51.893Z,101710.69
2023-01-25T18:31:19.432Z,101714.22
2023-01-25T18:33:46.739Z,101705.44
2023-01-25T18:36:15.566Z,101703.69
2023-01-25T18:38:43.211Z,101708.94
2023-01-25T18:41:10.935Z,101701.00
2023-01-25T18:43:38.307Z,101708.00
2023-01-25T18:46:05.523Z,101704.47
2023-01-25T18:48:32.834Z,101700.03
2023-01-25T18:51:06.084Z,101687.66
2023-01-25T18:53:34.939Z,101686.78
2023-01-25T18:56:14.757Z,101692.16
2023-01-25T18:58:42.647Z,101694.00
2023-01-25T19:01:18.753Z,101692.25
2023-01-25T19:03:47.178Z,101682.53
2023-01-25T19:06:15.317Z,101686.91
2023-01-25T19:08:44.493Z,101671.16
2023-01-25T19:11:13.841Z,101671.13
2023-01-25T19:13:42.369Z,101665.75
2023-01-25T19:16:13.514Z,101663.06
2023-01-25T19:18:46.459Z,101661.41
2023-01-25T19:21:15.515Z,101663.13
2023-01-25T19:23:43.393Z,101653.44
2023-01-25T19:26:12.916Z,101645.44
2023-01-25T19:28:40.800Z,101647.19
2023-01-25T19:31:13.915Z,101648.06
2023-01-25T19:33:41.807Z,101627.88
2023-01-25T19:36:15.372Z,101649.91
2023-01-25T19:38:44.865Z,101650.84
2023-01-25T19:41:14.721Z,101646.34
2023-01-25T19:43:41.996Z,101644.56
2023-01-25T19:46:20.160Z,101640.19
2023-01-25T19:48:50.177Z,101646.31
2023-01-25T19:51:31.584Z,101645.44
2023-01-25T19:54:00.250Z,101638.44
2023-01-25T19:56:28.661Z,101643.66
2023-01-25T19:58:58.595Z,101640.28
2023-01-25T20:01:29.242Z,101637.63
2023-01-25T20:04:02.209Z,101628.75
2023-01-25T20:06:29.428Z,101630.53
2023-01-25T20:08:56.769Z,101632.31
2023-01-25T20:11:29.302Z,101635.78
2023-01-25T20:13:59.001Z,101633.16
2023-01-25T20:16:27.232Z,101633.19
2023-01-25T20:18:57.063Z,101632.34
2023-01-25T20:21:26.197Z,101632.34
2023-01-25T20:23:57.105Z,101627.94
2023-01-25T20:26:28.839Z,101631.47
2023-01-25T20:28:57.417Z,101620.88
2023-01-25T20:31:30.597Z,101626.19
2023-01-25T20:34:00.914Z,101617.41
2023-01-25T20:36:28.812Z,101622.66
2023-01-25T20:38:56.344Z,101611.16
2023-01-25T20:41:23.996Z,101608.47
2023-01-25T20:44:04.947Z,101609.34
2023-01-25T20:46:34.392Z,101597.88
2023-01-25T20:49:02.149Z,101594.38
2023-01-25T20:51:29.789Z,101602.31
2023-01-25T20:53:59.789Z,101598.78
2023-01-25T20:56:27.127Z,101593.47
2023-01-25T20:58:54.991Z,101590.81
2023-01-25T21:01:30.550Z,101594.59
2023-01-25T21:03:58.430Z,101588.44
2023-01-25T21:06:27.801Z,101581.28
2023-01-25T21:08:55.274Z,101583.84
2023-01-25T21:11:25.958Z,101580.31
2023-01-25T21:13:54.098Z,101574.09
2023-01-25T21:16:23.082Z,101583.09
2023-01-25T21:18:55.029Z,101576.19
2023-01-25T21:21:25.964Z,101574.53
2023-01-25T21:23:55.634Z,101571.03
2023-01-25T21:26:26.144Z,101563.03
2023-01-25T21:28:57.863Z,101559.44
2023-01-25T21:31:29.957Z,101556.72
2023-01-25T21:33:57.591Z,101551.50
2023-01-25T21:36:25.060Z,101554.16
2023-01-25T21:38:53.752Z,101554.97
2023-01-25T21:41:24.446Z,101546.16
2023-01-25T21:44:11.529Z,101552.28
2023-01-25T21:46:38.985Z,101547.00
2023-01-25T21:49:29.761Z,101547.84
2023-01-25T21:52:02.101Z,101544.44
2023-01-25T21:54:31.115Z,101536.50
2023-01-25T21:56:59.965Z,101542.63
2023-01-25T21:59:27.186Z,101540.84
2023-01-25T22:01:55.262Z,101546.19
2023-01-25T22:04:23.713Z,101540.06
2023-01-25T22:06:52.549Z,101538.31
2023-01-25T22:09:19.467Z,101532.97
2023-01-25T22:11:48.086Z,101532.09
2023-01-25T22:14:15.031Z,101526.78
2023-01-25T22:16:41.982Z,101525.88
2023-01-25T22:19:08.975Z,101519.72
2023-01-25T22:21:35.914Z,101523.22
2023-01-25T22:24:04.714Z,101515.28
2023-01-25T22:27:05.986Z,101510.88
2023-01-25T22:29:34.472Z,101514.44
2023-01-25T22:32:02.302Z,101507.44
2023-01-25T22:34:29.198Z,101500.38
2023-01-25T22:36:56.085Z,101499.41
2023-01-25T22:39:23.008Z,101500.28
2023-01-25T22:41:49.956Z,101498.59
2023-01-25T22:44:16.873Z,101500.31
2023-01-25T22:46:43.783Z,101498.50
2023-01-25T22:49:10.612Z,101490.66
2023-01-25T22:51:37.649Z,101492.34
2023-01-25T22:54:05.203Z,101488.78
2023-01-25T22:56:33.368Z,101487.97
2023-01-25T22:59:01.166Z,101477.37
2023-01-25T23:01:31.849Z,101476.47
2023-01-25T23:03:59.251Z,101477.31
2023-01-25T23:06:31.333Z,101471.13
2023-01-25T23:09:00.039Z,101473.81
2023-01-25T23:11:46.927Z,101468.53
2023-01-25T23:14:32.431Z,101465.09
2023-01-25T23:17:17.921Z,101466.09
2023-01-25T23:19:51.134Z,101449.31
2023-01-25T23:22:17.952Z,101452.78
2023-01-25T23:24:46.805Z,101457.16
2023-01-25T23:27:13.708Z,101451.00
2023-01-25T23:29:40.999Z,101451.88
2023-01-25T23:32:08.337Z,101444.84
2023-01-25T23:34:40.226Z,101444.84
2023-01-25T23:37:07.355Z,101443.06
2023-01-25T23:39:34.533Z,101443.97
2023-01-25T23:42:01.447Z,101436.13
2023-01-25T23:44:28.288Z,101441.38
2023-01-25T23:46:55.218Z,101436.03
2023-01-25T23:49:22.215Z,101436.03
2023-01-25T23:51:49.044Z,101417.56
2023-01-25T23:54:15.893Z,101421.06
2023-01-25T23:56:42.780Z,101414.00
2023-01-25T23:59:09.624Z,101412.22
